createdAt,value
2023-02-11T00:02:41.301Z,80.89
2023-02-11T02:02:34.237Z,81.76
2023-02-11T02:32:47.577Z,82.01
2023-02-11T03:32:41.618Z,83.44
2023-02-11T04:02:55.450Z,84.43
2023-02-11T04:32:41.376Z,85.51
2023-02-11T05:02:42.637Z,87.75
2023-02-11T05:32:52.342Z,89.81
2023-02-11T06:32:44.323Z,91.72
2023-02-11T07:02:37.158Z,92.84
2023-02-11T07:32:51.906Z,92.51
2023-02-11T08:02:38.795Z,91.95
2023-02-11T08:32:38.352Z,92.79
2023-02-11T09:02:35.817Z,92.8
2023-02-11T09:32:37.553Z,92.45
2023-02-11T10:32:29.327Z,93.54
2023-02-11T11:02:38.733Z,94.26
2023-02-11T11:32:30.920Z,95.01
2023-02-11T12:02:32.059Z,94.79
2023-02-11T12:32:29.941Z,94.48
2023-02-11T13:02:33.503Z,94.99
2023-02-11T13:32:27.535Z,95.22
2023-02-11T14:02:28.781Z,95.43
2023-02-11T14:32:36.027Z,96.01
2023-02-11T15:02:26.254Z,96.49
2023-02-11T15:32:36.106Z,96.85
2023-02-11T16:02:35.989Z,97.25
2023-02-11T16:32:29.432Z,97.52
2023-02-11T17:02:29.030Z,97.65
2023-02-11T17:32:30.672Z,97.83
2023-02-11T18:32:30.150Z,98.06
2023-02-11T19:02:27.557Z,98.13
2023-02-11T19:32:25.635Z,98.18
2023-02-11T20:02:29.505Z,98.27
2023-02-11T20:32:25.112Z,98.35
2023-02-11T21:32:30.628Z,98.3
2023-02-11T22:02:27.876Z,98.3
2023-02-11T22:32:23.510Z,98.2
2023-02-11T23:02:30.288Z,98.26
2023-02-11T23:32:29.189Z,98.28
